sensor_id;sensor_type;location;lat;lon;timestamp;pressure;altitude;pressure_sealevel;temperature;humidity
16120;BME280;12670;53.502;10.252;2024-03-06T00:02:50;101726.41;;;7.10;100.00
16120;BME280;12670;53.502;10.252;2024-03-06T00:05:52;101718.41;;;7.15;100.00
16120;BME280;12670;53.502;10.252;2024-03-06T00:08:56;101722.81;;;7.17;100.00
16120;BME280;12670;53.502;10.252;2024-03-06T00:11:59;101720.25;;;7.08;100.00
16120;BME280;12670;53.502;10.252;2024-03-06T00:15:03;101723.69;;;7.18;100.00
16120;BME280;12670;53.502;10.252;2024-03-06T00:18:06;101729.75;;;7.25;100.00
16120;BME280;12670;53.502;10.252;2024-03-06T00:21:08;101733.41;;;7.13;100.00
16120;BME280;12670;53.502;10.252;2024-03-06T00:24:14;101731.63;;;7.16;100.00
16120;BME280;12670;53.502;10.252;2024-03-06T00:27:16;101724.53;;;7.18;100.00
16120;BME280;12670;53.502;10.252;2024-03-06T00:30:19;101722.72;;;7.24;100.00
16120;BME280;12670;53.502;10.252;2024-03-06T00:33:23;101730.00;;;7.03;100.00
16120;BME280;12670;53.502;10.252;2024-03-06T00:36:25;101736.03;;;7.16;100.00
16120;BME280;12670;53.502;10.252;2024-03-06T00:39:30;101737.72;;;7.20;100.00
16120;BME280;12670;53.502;10.252;2024-03-06T00:42:32;101736.84;;;7.19;100.00
16120;BME280;12670;53.502;10.252;2024-03-06T00:45:36;101743.78;;;7.30;100.00
16120;BME280;12670;53.502;10.252;2024-03-06T00:48:39;101748.41;;;7.08;100.00
16120;BME280;12670;53.502;10.252;2024-03-06T00:51:43;101751.00;;;7.15;100.00
16120;BME280;12670;53.502;10.252;2024-03-06T00:54:51;101751.91;;;7.08;100.00
16120;BME280;12670;53.502;10.252;2024-03-06T00:57:54;101751.28;;;6.85;100.00
16120;BME280;12670;53.502;10.252;2024-03-06T01:00:57;101755.38;;;7.16;100.00
16120;BME280;12670;53.502;10.252;2024-03-06T01:04:00;101763.22;;;7.22;100.00
16120;BME280;12670;53.502;10.252;2024-03-06T01:07:03;101773.97;;;7.04;100.00
16120;BME280;12670;53.502;10.252;2024-03-06T01:10:08;101766.75;;;7.21;100.00
16120;BME280;12670;53.502;10.252;2024-03-06T01:13:12;101774.59;;;7.26;100.00
16120;BME280;12670;53.502;10.252;2024-03-06T01:16:14;101776.78;;;6.86;100.00
16120;BME280;12670;53.502;10.252;2024-03-06T01:19:17;101774.81;;;7.06;100.00
16120;BME280;12670;53.502;10.252;2024-03-06T01:22:20;101774.16;;;6.86;100.00
16120;BME280;12670;53.502;10.252;2024-03-06T01:25:24;101782.28;;;6.61;100.00
16120;BME280;12670;53.502;10.252;2024-03-06T01:28:26;101774.91;;;6.97;100.00
16120;BME280;12670;53.502;10.252;2024-03-06T01:31:30;101783.53;;;7.14;100.00
16120;BME280;12670;53.502;10.252;2024-03-06T01:34:32;101780.09;;;7.08;100.00
16120;BME280;12670;53.502;10.252;2024-03-06T01:37:35;101779.97;;;7.18;100.00
16120;BME280;12670;53.502;10.252;2024-03-06T01:40:42;101782.72;;;7.08;100.00
16120;BME280;12670;53.502;10.252;2024-03-06T01:43:45;101777.38;;;7.15;100.00
16120;BME280;12670;53.502;10.252;2024-03-06T01:46:48;101784.59;;;6.98;100.00
16120;BME280;12670;53.502;10.252;2024-03-06T01:49:51;101777.53;;;7.00;100.00
16120;BME280;12670;53.502;10.252;2024-03-06T01:52:53;101782.16;;;6.77;100.00
16120;BME280;12670;53.502;10.252;2024-03-06T01:55:58;101788.38;;;6.70;100.00
16120;BME280;12670;53.502;10.252;2024-03-06T01:59:01;101792.72;;;6.74;100.00
16120;BME280;12670;53.502;10.252;2024-03-06T02:02:05;101802.34;;;6.79;100.00
16120;BME280;12670;53.502;10.252;2024-03-06T02:05:09;101787.25;;;6.95;100.00
16120;BME280;12670;53.502;10.252;2024-03-06T02:08:15;101793.44;;;6.94;100.00
16120;BME280;12670;53.502;10.252;2024-03-06T02:11:20;101792.56;;;6.93;100.00
16120;BME280;12670;53.502;10.252;2024-03-06T02:14:23;101795.06;;;7.06;100.00
16120;BME280;12670;53.502;10.252;2024-03-06T02:17:26;101799.44;;;7.08;100.00
16120;BME280;12670;53.502;10.252;2024-03-06T02:20:32;101800.44;;;6.95;100.00
16120;BME280;12670;53.502;10.252;2024-03-06T02:23:35;101801.28;;;6.97;100.00
16120;BME280;12670;53.502;10.252;2024-03-06T02:26:38;101802.25;;;6.90;100.00
16120;BME280;12670;53.502;10.252;2024-03-06T02:29:41;101800.50;;;6.89;100.00
16120;BME280;12670;53.502;10.252;2024-03-06T02:32:43;101800.44;;;6.98;100.00
16120;BME280;12670;53.502;10.252;2024-03-06T02:35:47;101804.78;;;7.01;100.00
16120;BME280;12670;53.502;10.252;2024-03-06T02:38:50;101804.16;;;6.76;100.00
16120;BME280;12670;53.502;10.252;2024-03-06T02:41:53;101818.13;;;6.84;100.00
16120;BME280;12670;53.502;10.252;2024-03-06T02:44:55;101821.63;;;6.89;100.00
16120;BME280;12670;53.502;10.252;2024-03-06T02:47:58;101816.31;;;6.92;100.00
16120;BME280;12670;53.502;10.252;2024-03-06T02:51:02;101812.84;;;6.87;100.00
16120;BME280;12670;53.502;10.252;2024-03-06T02:54:05;101806.63;;;6.94;100.00
16120;BME280;12670;53.502;10.252;2024-03-06T02:57:07;101803.28;;;6.75;100.00
16120;BME280;12670;53.502;10.252;2024-03-06T03:00:11;101808.56;;;6.72;100.00
16120;BME280;12670;53.502;10.252;2024-03-06T03:03:15;101810.28;;;6.81;100.00
16120;BME280;12670;53.502;10.252;2024-03-06T03:06:19;101804.03;;;6.88;100.00
16120;BME280;12670;53.502;10.252;2024-03-06T03:09:22;101810.31;;;6.75;100.00
16120;BME280;12670;53.502;10.252;2024-03-06T03:12:25;101811.28;;;6.64;100.00
16120;BME280;12670;53.502;10.252;2024-03-06T03:15:28;101816.75;;;6.37;100.00
16120;BME280;12670;53.502;10.252;2024-03-06T03:18:30;101808.75;;;6.51;100.00
16120;BME280;12670;53.502;10.252;2024-03-06T03:21:34;101807.91;;;6.47;100.00
16120;BME280;12670;53.502;10.252;2024-03-06T03:24:37;101809.69;;;6.42;100.00
16120;BME280;12670;53.502;10.252;2024-03-06T03:27:40;101813.28;;;6.32;100.00
16120;BME280;12670;53.502;10.252;2024-03-06T03:30:45;101811.59;;;6.28;100.00
16120;BME280;12670;53.502;10.252;2024-03-06T03:33:47;101816.09;;;6.06;100.00
16120;BME280;12670;53.502;10.252;2024-03-06T03:36:51;101822.16;;;6.19;100.00
16120;BME280;12670;53.502;10.252;2024-03-06T03:39:54;101831.88;;;6.10;100.00
16120;BME280;12670;53.502;10.252;2024-03-06T03:42:57;101826.69;;;5.86;100.00
16120;BME280;12670;53.502;10.252;2024-03-06T03:46:00;101829.38;;;5.83;100.00
16120;BME280;12670;53.502;10.252;2024-03-06T03:49:03;101839.00;;;5.88;100.00
16120;BME280;12670;53.502;10.252;2024-03-06T03:52:07;101848.72;;;5.71;100.00
16120;BME280;12670;53.502;10.252;2024-03-06T03:55:09;101841.69;;;5.69;100.00
16120;BME280;12670;53.502;10.252;2024-03-06T03:58:12;101846.97;;;5.72;100.00
16120;BME280;12670;53.502;10.252;2024-03-06T04:01:15;101846.16;;;5.54;100.00
16120;BME280;12670;53.502;10.252;2024-03-06T04:04:18;101853.19;;;5.48;100.00
16120;BME280;12670;53.502;10.252;2024-03-06T04:07:22;101851.41;;;5.57;100.00
16120;BME280;12670;53.502;10.252;2024-03-06T04:10:25;101842.66;;;5.45;100.00
16120;BME280;12670;53.502;10.252;2024-03-06T04:13:27;101845.31;;;5.43;100.00
16120;BME280;12670;53.502;10.252;2024-03-06T04:16:30;101847.13;;;5.29;100.00
16120;BME280;12670;53.502;10.252;2024-03-06T04:19:35;101848.84;;;5.33;100.00
16120;BME280;12670;53.502;10.252;2024-03-06T04:22:39;101849.69;;;5.43;100.00
16120;BME280;12670;53.502;10.252;2024-03-06T04:25:41;101854.97;;;5.40;100.00
16120;BME280;12670;53.502;10.252;2024-03-06T04:28:44;101848.81;;;5.42;100.00
16120;BME280;12670;53.502;10.252;2024-03-06T04:31:47;101855.00;;;5.30;100.00
16120;BME280;12670;53.502;10.252;2024-03-06T04:34:49;101859.41;;;5.16;100.00
16120;BME280;12670;53.502;10.252;2024-03-06T04:37:53;101858.53;;;5.22;100.00
16120;BME280;12670;53.502;10.252;2024-03-06T04:40:57;101861.16;;;5.13;100.00
16120;BME280;12670;53.502;10.252;2024-03-06T04:44:00;101862.06;;;5.05;100.00
16120;BME280;12670;53.502;10.252;2024-03-06T04:47:02;101860.31;;;5.01;100.00
16120;BME280;12670;53.502;10.252;2024-03-06T04:50:08;101865.59;;;4.98;100.00
16120;BME280;12670;53.502;10.252;2024-03-06T04:53:13;101872.59;;;4.89;100.00
16120;BME280;12670;53.502;10.252;2024-03-06T04:56:16;101876.97;;;4.94;100.00
16120;BME280;12670;53.502;10.252;2024-03-06T04:59:20;101880.47;;;4.73;100.00
16120;BME280;12670;53.502;10.252;2024-03-06T05:02:23;101882.22;;;4.59;100.00
16120;BME280;12670;53.502;10.252;2024-03-06T05:05:26;101885.75;;;4.75;100.00
16120;BME280;12670;53.502;10.252;2024-03-06T05:08:47;101884.84;;;4.65;100.00
16120;BME280;12670;53.502;10.252;2024-03-06T05:12:08;101895.34;;;4.62;100.00
16120;BME280;12670;53.502;10.252;2024-03-06T05:15:28;101897.09;;;4.49;100.00
16120;BME280;12670;53.502;10.252;2024-03-06T05:18:49;101897.97;;;4.47;100.00
16120;BME280;12670;53.502;10.252;2024-03-06T05:22:09;101901.47;;;4.50;100.00
16120;BME280;12670;53.502;10.252;2024-03-06T05:25:31;101909.34;;;4.47;100.00
16120;BME280;12670;53.502;10.252;2024-03-06T05:28:51;101904.97;;;4.55;100.00
16120;BME280;12670;53.502;10.252;2024-03-06T05:32:12;101912.84;;;4.57;100.00
16120;BME280;12670;53.502;10.252;2024-03-06T05:35:32;101916.38;;;4.53;100.00
16120;BME280;12670;53.502;10.252;2024-03-06T05:38:53;101927.72;;;4.38;100.00
16120;BME280;12670;53.502;10.252;2024-03-06T05:42:14;101931.22;;;4.30;100.00
16120;BME280;12670;53.502;10.252;2024-03-06T05:45:35;101937.28;;;4.13;100.00
16120;BME280;12670;53.502;10.252;2024-03-06T05:48:55;101942.56;;;4.18;100.00
16120;BME280;12670;53.502;10.252;2024-03-06T05:52:15;101946.06;;;4.17;100.00
16120;BME280;12670;53.502;10.252;2024-03-06T05:55:35;101954.84;;;4.33;100.00
16120;BME280;12670;53.502;10.252;2024-03-06T05:58:57;101964.47;;;4.23;100.00
16120;BME280;12670;53.502;10.252;2024-03-06T06:02:00;101963.53;;;4.13;100.00
16120;BME280;12670;53.502;10.252;2024-03-06T06:05:03;101961.75;;;4.05;100.00
16120;BME280;12670;53.502;10.252;2024-03-06T06:08:24;101973.16;;;4.07;100.00
16120;BME280;12670;53.502;10.252;2024-03-06T06:11:26;101976.63;;;4.03;100.00
16120;BME280;12670;53.502;10.252;2024-03-06T06:14:31;101981.03;;;4.08;100.00
16120;BME280;12670;53.502;10.252;2024-03-06T06:17:33;101979.31;;;4.12;100.00
16120;BME280;12670;53.502;10.252;2024-03-06T06:20:36;101988.03;;;4.08;100.00
16120;BME280;12670;53.502;10.252;2024-03-06T06:23:40;101991.47;;;3.93;100.00
16120;BME280;12670;53.502;10.252;2024-03-06T06:26:43;102001.97;;;3.97;100.00
16120;BME280;12670;53.502;10.252;2024-03-06T06:29:47;102002.06;;;4.13;100.00
16120;BME280;12670;53.502;10.252;2024-03-06T06:32:49;102003.88;;;4.24;100.00
16120;BME280;12670;53.502;10.252;2024-03-06T06:35:52;102013.50;;;4.24;100.00
16120;BME280;12670;53.502;10.252;2024-03-06T06:38:55;102009.03;;;4.08;100.00
16120;BME280;12670;53.502;10.252;2024-03-06T06:41:58;102019.59;;;4.21;100.00
16120;BME280;12670;53.502;10.252;2024-03-06T06:45:02;102028.34;;;4.20;100.00
16120;BME280;12670;53.502;10.252;2024-03-06T06:48:05;102025.72;;;4.19;100.00
16120;BME280;12670;53.502;10.252;2024-03-06T06:51:10;102027.47;;;4.20;100.00
16120;BME280;12670;53.502;10.252;2024-03-06T06:54:13;102032.81;;;4.35;100.00
16120;BME280;12670;53.502;10.252;2024-03-06T06:57:15;102036.38;;;4.49;100.00
16120;BME280;12670;53.502;10.252;2024-03-06T07:00:20;102038.16;;;4.60;100.00
16120;BME280;12670;53.502;10.252;2024-03-06T07:03:24;102042.53;;;4.53;100.00
16120;BME280;12670;53.502;10.252;2024-03-06T07:06:31;102039.94;;;4.58;100.00
16120;BME280;12670;53.502;10.252;2024-03-06T07:09:34;102047.81;;;4.61;100.00
16120;BME280;12670;53.502;10.252;2024-03-06T07:12:36;102048.69;;;4.63;100.00
16120;BME280;12670;53.502;10.252;2024-03-06T07:15:40;102054.03;;;4.81;100.00
16120;BME280;12670;53.502;10.252;2024-03-06T07:18:43;102050.50;;;4.76;100.00
16120;BME280;12670;53.502;10.252;2024-03-06T07:21:46;102061.94;;;4.87;100.00
16120;BME280;12670;53.502;10.252;2024-03-06T07:24:49;102063.69;;;5.03;100.00
16120;BME280;12670;53.502;10.252;2024-03-06T07:27:51;102062.88;;;5.11;100.00
16120;BME280;12670;53.502;10.252;2024-03-06T07:30:56;102071.63;;;5.16;100.00
16120;BME280;12670;53.502;10.252;2024-03-06T07:33:58;102074.28;;;5.26;100.00
16120;BME280;12670;53.502;10.252;2024-03-06T07:37:01;102077.81;;;5.48;100.00
16120;BME280;12670;53.502;10.252;2024-03-06T07:40:07;102082.19;;;5.45;100.00
16120;BME280;12670;53.502;10.252;2024-03-06T07:43:11;102084.84;;;5.46;100.00
16120;BME280;12670;53.502;10.252;2024-03-06T07:46:16;102093.59;;;5.62;100.00
16120;BME280;12670;53.502;10.252;2024-03-06T07:49:19;102091.00;;;5.57;100.00
16120;BME280;12670;53.502;10.252;2024-03-06T07:52:23;102091.84;;;5.61;100.00
16120;BME280;12670;53.502;10.252;2024-03-06T07:55:26;102098.00;;;5.89;100.00
16120;BME280;12670;53.502;10.252;2024-03-06T07:58:28;102099.75;;;6.04;100.00
16120;BME280;12670;53.502;10.252;2024-03-06T08:01:32;102093.59;;;6.09;100.00
16120;BME280;12670;53.502;10.252;2024-03-06T08:04:35;102100.63;;;6.23;100.00
16120;BME280;12670;53.502;10.252;2024-03-06T08:07:38;102104.16;;;6.22;100.00
16120;BME280;12670;53.502;10.252;2024-03-06T08:10:43;102104.09;;;6.41;100.00
16120;BME280;12670;53.502;10.252;2024-03-06T08:13:46;102104.94;;;6.48;100.00
16120;BME280;12670;53.502;10.252;2024-03-06T08:16:50;102106.66;;;6.58;100.00
16120;BME280;12670;53.502;10.252;2024-03-06T08:19:53;102113.69;;;6.59;100.00
16120;BME280;12670;53.502;10.252;2024-03-06T08:22:56;102112.78;;;6.66;100.00
16120;BME280;12670;53.502;10.252;2024-03-06T08:25:59;102111.78;;;6.98;100.00
16120;BME280;12670;53.502;10.252;2024-03-06T08:29:02;102122.31;;;7.01;100.00
16120;BME280;12670;53.502;10.252;2024-03-06T08:32:06;102125.72;;;7.18;100.00
16120;BME280;12670;53.502;10.252;2024-03-06T08:35:10;102124.81;;;7.26;100.00
16120;BME280;12670;53.502;10.252;2024-03-06T08:38:18;102129.94;;;7.48;100.00
16120;BME280;12670;53.502;10.252;2024-03-06T08:41:21;102141.41;;;7.47;100.00
16120;BME280;12670;53.502;10.252;2024-03-06T08:44:24;102144.88;;;7.57;100.00
16120;BME280;12670;53.502;10.252;2024-03-06T08:47:28;102143.06;;;7.61;100.00
16120;BME280;12670;53.502;10.252;2024-03-06T08:50:31;102142.94;;;7.78;100.00
16120;BME280;12670;53.502;10.252;2024-03-06T08:53:33;102141.03;;;7.95;100.00
16120;BME280;12670;53.502;10.252;2024-03-06T08:56:36;102139.94;;;8.19;100.00
16120;BME280;12670;53.502;10.252;2024-03-06T08:59:39;102139.09;;;8.15;100.00
16120;BME280;12670;53.502;10.252;2024-03-06T09:02:43;102145.97;;;8.33;100.00
16120;BME280;12670;53.502;10.252;2024-03-06T09:05:46;102149.47;;;8.37;100.00
16120;BME280;12670;53.502;10.252;2024-03-06T09:08:49;102154.84;;;8.27;100.00
16120;BME280;12670;53.502;10.252;2024-03-06T09:11:51;102160.13;;;8.26;100.00
16120;BME280;12670;53.502;10.252;2024-03-06T09:14:54;102156.53;;;8.38;100.00
16120;BME280;12670;53.502;10.252;2024-03-06T09:17:58;102168.47;;;8.75;100.00
16120;BME280;12670;53.502;10.252;2024-03-06T09:21:01;102163.22;;;8.72;97.65
16120;BME280;12670;53.502;10.252;2024-03-06T09:24:05;102156.75;;;8.95;95.49
16120;BME280;12670;53.502;10.252;2024-03-06T09:27:08;102167.34;;;8.95;95.20
16120;BME280;12670;53.502;10.252;2024-03-06T09:30:11;102177.25;;;8.80;91.00
16120;BME280;12670;53.502;10.252;2024-03-06T09:33:16;102179.69;;;8.97;93.45
16120;BME280;12670;53.502;10.252;2024-03-06T09:36:19;102184.09;;;8.98;88.67
16120;BME280;12670;53.502;10.252;2024-03-06T09:39:22;102173.97;;;9.29;90.62
16120;BME280;12670;53.502;10.252;2024-03-06T09:42:25;102178.72;;;9.66;91.50
16120;BME280;12670;53.502;10.252;2024-03-06T09:45:29;102182.78;;;9.90;83.13
16120;BME280;12670;53.502;10.252;2024-03-06T09:48:33;102183.91;;;9.75;78.50
16120;BME280;12670;53.502;10.252;2024-03-06T09:51:42;102181.75;;;9.42;78.96
16120;BME280;12670;53.502;10.252;2024-03-06T09:54:47;102195.97;;;9.95;83.27
16120;BME280;12670;53.502;10.252;2024-03-06T09:57:50;102193.91;;;10.12;74.70
16120;BME280;12670;53.502;10.252;2024-03-06T10:00:55;102200.78;;;10.27;71.42
16120;BME280;12670;53.502;10.252;2024-03-06T10:04:17;102194.81;;;10.63;70.38
16120;BME280;12670;53.502;10.252;2024-03-06T10:07:19;102192.75;;;10.78;70.56
16120;BME280;12670;53.502;10.252;2024-03-06T10:10:22;102193.63;;;10.80;69.38
16120;BME280;12670;53.502;10.252;2024-03-06T10:13:25;102203.13;;;10.91;65.28
16120;BME280;12670;53.502;10.252;2024-03-06T10:16:29;102206.81;;;10.83;67.64
16120;BME280;12670;53.502;10.252;2024-03-06T10:19:35;102202.78;;;11.08;68.42
16120;BME280;12670;53.502;10.252;2024-03-06T10:22:38;102202.88;;;11.02;66.04
16120;BME280;12670;53.502;10.252;2024-03-06T10:25:43;102219.41;;;10.73;66.70
16120;BME280;12670;53.502;10.252;2024-03-06T10:28:46;102219.06;;;11.33;62.77
16120;BME280;12670;53.502;10.252;2024-03-06T10:31:50;102212.53;;;11.88;58.84
16120;BME280;12670;53.502;10.252;2024-03-06T10:34:56;102219.34;;;12.36;59.93
16120;BME280;12670;53.502;10.252;2024-03-06T10:38:00;102209.94;;;13.20;55.46
16120;BME280;12670;53.502;10.252;2024-03-06T10:41:04;102212.47;;;13.84;53.53
16120;BME280;12670;53.502;10.252;2024-03-06T10:44:11;102216.56;;;14.49;52.73
16120;BME280;12670;53.502;10.252;2024-03-06T10:47:16;102209.88;;;15.34;48.61
16120;BME280;12670;53.502;10.252;2024-03-06T10:50:21;102210.56;;;16.06;46.68
16120;BME280;12670;53.502;10.252;2024-03-06T10:53:25;102218.41;;;16.53;45.04
16120;BME280;12670;53.502;10.252;2024-03-06T10:56:30;102215.63;;;16.76;43.77
16120;BME280;12670;53.502;10.252;2024-03-06T10:59:34;102210.34;;;17.14;41.05
16120;BME280;12670;53.502;10.252;2024-03-06T11:02:38;102205.50;;;17.41;42.79
16120;BME280;12670;53.502;10.252;2024-03-06T11:05:44;102213.00;;;17.72;41.42
16120;BME280;12670;53.502;10.252;2024-03-06T11:08:49;102207.91;;;17.66;40.92
16120;BME280;12670;53.502;10.252;2024-03-06T11:11:53;102209.47;;;15.90;43.29
16120;BME280;12670;53.502;10.252;2024-03-06T11:14:57;102217.16;;;15.07;44.81
16120;BME280;12670;53.502;10.252;2024-03-06T11:21:47;102213.50;;;17.43;40.82
16120;BME280;12670;53.502;10.252;2024-03-06T11:24:50;102213.41;;;18.01;39.00
16120;BME280;12670;53.502;10.252;2024-03-06T11:28:03;102216.19;;;18.34;40.14
16120;BME280;12670;53.502;10.252;2024-03-06T11:31:07;102221.13;;;19.11;37.11
16120;BME280;12670;53.502;10.252;2024-03-06T11:34:14;102213.56;;;19.51;36.76
16120;BME280;12670;53.502;10.252;2024-03-06T11:37:20;102219.91;;;19.50;36.85
16120;BME280;12670;53.502;10.252;2024-03-06T11:40:24;102213.75;;;19.63;35.80
16120;BME280;12670;53.502;10.252;2024-03-06T11:43:27;102219.00;;;19.82;35.90
16120;BME280;12670;53.502;10.252;2024-03-06T11:46:42;102213.72;;;18.99;35.60
16120;BME280;12670;53.502;10.252;2024-03-06T11:49:45;102218.28;;;19.14;36.46
16120;BME280;12670;53.502;10.252;2024-03-06T11:52:49;102216.09;;;17.63;39.01
16120;BME280;12670;53.502;10.252;2024-03-06T11:55:52;102216.94;;;16.04;41.28
16120;BME280;12670;53.502;10.252;2024-03-06T11:58:54;102217.25;;;15.96;41.35
16120;BME280;12670;53.502;10.252;2024-03-06T12:01:58;102222.75;;;14.99;43.41
16120;BME280;12670;53.502;10.252;2024-03-06T12:05:05;102212.69;;;15.31;44.73
16120;BME280;12670;53.502;10.252;2024-03-06T12:08:09;102227.34;;;14.71;45.26
16120;BME280;12670;53.502;10.252;2024-03-06T12:11:12;102226.69;;;13.25;47.82
16120;BME280;12670;53.502;10.252;2024-03-06T12:14:17;102234.16;;;12.80;50.14
16120;BME280;12670;53.502;10.252;2024-03-06T12:17:20;102232.47;;;12.08;50.53
16120;BME280;12670;53.502;10.252;2024-03-06T12:20:24;102223.66;;;11.67;52.19
16120;BME280;12670;53.502;10.252;2024-03-06T12:23:28;102232.63;;;11.19;54.49
16120;BME280;12670;53.502;10.252;2024-03-06T12:26:31;102231.72;;;11.22;55.74
16120;BME280;12670;53.502;10.252;2024-03-06T12:29:35;102241.84;;;11.02;56.22
16120;BME280;12670;53.502;10.252;2024-03-06T12:32:39;102246.56;;;10.87;57.33
16120;BME280;12670;53.502;10.252;2024-03-06T12:35:42;102234.91;;;10.94;57.83
16120;BME280;12670;53.502;10.252;2024-03-06T12:38:54;102242.94;;;10.91;59.81
16120;BME280;12670;53.502;10.252;2024-03-06T12:41:56;102241.72;;;11.08;59.36
16120;BME280;12670;53.502;10.252;2024-03-06T12:44:59;102241.97;;;10.97;59.10
16120;BME280;12670;53.502;10.252;2024-03-06T12:48:03;102228.41;;;11.11;60.14
16120;BME280;12670;53.502;10.252;2024-03-06T12:51:07;102236.66;;;10.95;59.17
16120;BME280;12670;53.502;10.252;2024-03-06T12:54:11;102239.06;;;11.08;57.33
16120;BME280;12670;53.502;10.252;2024-03-06T12:57:13;102234.13;;;10.89;59.17
16120;BME280;12670;53.502;10.252;2024-03-06T13:00:17;102237.53;;;10.98;59.39
16120;BME280;12670;53.502;10.252;2024-03-06T13:03:20;102232.75;;;11.15;58.75
16120;BME280;12670;53.502;10.252;2024-03-06T13:06:22;102239.59;;;11.27;60.12
16120;BME280;12670;53.502;10.252;2024-03-06T13:09:26;102232.88;;;11.51;58.88
16120;BME280;12670;53.502;10.252;2024-03-06T13:12:29;102232.28;;;11.38;58.97
16120;BME280;12670;53.502;10.252;2024-03-06T13:15:32;102244.38;;;11.09;57.40
16120;BME280;12670;53.502;10.252;2024-03-06T13:18:35;102234.03;;;11.39;58.18
16120;BME280;12670;53.502;10.252;2024-03-06T13:21:38;102228.69;;;11.39;55.81
16120;BME280;12670;53.502;10.252;2024-03-06T13:24:42;102238.03;;;11.16;58.53
16120;BME280;12670;53.502;10.252;2024-03-06T13:27:49;102234.88;;;10.98;57.21
16120;BME280;12670;53.502;10.252;2024-03-06T13:30:53;102244.94;;;10.80;58.68
16120;BME280;12670;53.502;10.252;2024-03-06T13:33:56;102245.28;;;10.62;61.56
16120;BME280;12670;53.502;10.252;2024-03-06T13:36:59;102244.06;;;10.80;60.04
16120;BME280;12670;53.502;10.252;2024-03-06T13:40:03;102249.69;;;10.63;60.24
16120;BME280;12670;53.502;10.252;2024-03-06T13:43:08;102243.34;;;10.70;58.79
16120;BME280;12670;53.502;10.252;2024-03-06T13:46:11;102243.47;;;10.64;58.62
16120;BME280;12670;53.502;10.252;2024-03-06T13:49:34;102241.63;;;11.12;57.79
16120;BME280;12670;53.502;10.252;2024-03-06T13:52:37;102241.72;;;11.08;58.13
16120;BME280;12670;53.502;10.252;2024-03-06T13:55:41;102234.00;;;10.97;58.30
16120;BME280;12670;53.502;10.252;2024-03-06T13:58:44;102248.53;;;11.23;57.71
16120;BME280;12670;53.502;10.252;2024-03-06T14:01:46;102240.50;;;11.24;57.26
16120;BME280;12670;53.502;10.252;2024-03-06T14:04:50;102248.50;;;10.79;57.47
16120;BME280;12670;53.502;10.252;2024-03-06T14:07:53;102246.13;;;10.64;59.85
16120;BME280;12670;53.502;10.252;2024-03-06T14:10:58;102248.44;;;10.82;57.96
16120;BME280;12670;53.502;10.252;2024-03-06T14:14:00;102245.63;;;10.90;58.69
16120;BME280;12670;53.502;10.252;2024-03-06T14:17:04;102244.47;;;11.05;59.06
16120;BME280;12670;53.502;10.252;2024-03-06T14:20:07;102247.38;;;12.15;54.92
16120;BME280;12670;53.502;10.252;2024-03-06T14:23:10;102247.13;;;12.24;52.90
16120;BME280;12670;53.502;10.252;2024-03-06T14:26:15;102236.13;;;13.04;52.68
16120;BME280;12670;53.502;10.252;2024-03-06T14:29:18;102241.22;;;13.14;52.09
16120;BME280;12670;53.502;10.252;2024-03-06T14:32:21;102247.03;;;12.95;51.12
16120;BME280;12670;53.502;10.252;2024-03-06T14:35:24;102245.22;;;12.97;50.36
16120;BME280;12670;53.502;10.252;2024-03-06T14:38:27;102249.06;;;12.87;52.03
16120;BME280;12670;53.502;10.252;2024-03-06T14:41:31;102255.84;;;13.31;49.60
16120;BME280;12670;53.502;10.252;2024-03-06T14:44:34;102252.75;;;13.14;49.11
16120;BME280;12670;53.502;10.252;2024-03-06T14:47:36;102254.13;;;12.96;48.80
16120;BME280;12670;53.502;10.252;2024-03-06T14:50:39;102254.47;;;12.84;49.64
16120;BME280;12670;53.502;10.252;2024-03-06T14:53:42;102255.59;;;12.75;50.99
16120;BME280;12670;53.502;10.252;2024-03-06T14:56:46;102259.59;;;12.58;51.35
16120;BME280;12670;53.502;10.252;2024-03-06T14:59:49;102252.72;;;11.74;51.63
16120;BME280;12670;53.502;10.252;2024-03-06T15:02:52;102271.34;;;12.15;51.94
16120;BME280;12670;53.502;10.252;2024-03-06T15:05:59;102265.28;;;11.68;52.75
16120;BME280;12670;53.502;10.252;2024-03-06T15:09:02;102269.78;;;11.23;54.56
16120;BME280;12670;53.502;10.252;2024-03-06T15:12:08;102270.53;;;11.29;55.05
16120;BME280;12670;53.502;10.252;2024-03-06T15:15:11;102281.34;;;11.20;54.63
16120;BME280;12670;53.502;10.252;2024-03-06T15:18:13;102272.09;;;11.39;56.28
16120;BME280;12670;53.502;10.252;2024-03-06T15:21:16;102266.06;;;11.73;54.22
16120;BME280;12670;53.502;10.252;2024-03-06T15:24:19;102265.88;;;11.82;53.52
16120;BME280;12670;53.502;10.252;2024-03-06T15:27:23;102272.25;;;11.72;52.86
16120;BME280;12670;53.502;10.252;2024-03-06T15:30:26;102275.69;;;11.79;52.15
16120;BME280;12670;53.502;10.252;2024-03-06T15:33:30;102275.34;;;11.94;53.26
16120;BME280;12670;53.502;10.252;2024-03-06T15:36:33;102275.00;;;11.69;53.59
16120;BME280;12670;53.502;10.252;2024-03-06T15:39:35;102277.56;;;11.73;53.99
16120;BME280;12670;53.502;10.252;2024-03-06T15:42:39;102285.13;;;11.93;53.95
16120;BME280;12670;53.502;10.252;2024-03-06T15:45:42;102285.59;;;11.29;54.09
16120;BME280;12670;53.502;10.252;2024-03-06T15:48:45;102293.03;;;11.11;56.24
16120;BME280;12670;53.502;10.252;2024-03-06T15:51:48;102289.53;;;10.60;56.84
16120;BME280;12670;53.502;10.252;2024-03-06T15:54:50;102287.41;;;10.80;57.68
16120;BME280;12670;53.502;10.252;2024-03-06T15:57:56;102287.84;;;10.56;57.88